createdAt,value
2023-03-22T00:00:21.642Z,7.70
2023-03-22T00:03:24.591Z,8.47
2023-03-22T00:06:28.573Z,8.30
2023-03-22T00:09:31.767Z,7.73
2023-03-22T00:12:34.343Z,7.60
2023-03-22T00:15:37.674Z,8.70
2023-03-22T00:18:41.704Z,8.13
2023-03-22T00:21:46.279Z,8.93
2023-03-22T00:24:48.967Z,8.13
2023-03-22T00:27:51.707Z,8.27
2023-03-22T00:30:56.470Z,7.90
2023-03-22T00:33:59.224Z,8.20
2023-03-22T00:37:03.366Z,9.47
2023-03-22T00:40:08.812Z,8.93
2023-03-22T00:43:11.393Z,8.97
2023-03-22T00:46:15.651Z,9.63
2023-03-22T00:49:18.838Z,9.40
2023-03-22T00:52:23.235Z,9.10
2023-03-22T00:55:25.836Z,9.57
2023-03-22T00:58:28.457Z,9.70
2023-03-22T01:01:31.661Z,9.03
2023-03-22T01:04:35.571Z,9.23
2023-03-22T01:07:41.610Z,9.93
2023-03-22T01:10:46.001Z,9.63
2023-03-22T01:13:48.940Z,11.00
2023-03-22T01:16:54.775Z,10.40
2023-03-22T01:19:57.381Z,11.13
2023-03-22T01:23:01.427Z,10.03
2023-03-22T01:26:04.432Z,9.70
2023-03-22T01:29:07.187Z,10.97
2023-03-22T01:32:09.796Z,9.90
2023-03-22T01:35:12.576Z,9.83
2023-03-22T01:38:16.546Z,9.77
2023-03-22T01:41:19.138Z,10.40
2023-03-22T01:44:23.577Z,9.37
2023-03-22T01:47:26.265Z,10.00
2023-03-22T01:50:30.092Z,9.30
2023-03-22T01:53:37.685Z,10.07
2023-03-22T01:56:41.978Z,10.07
2023-03-22T01:59:45.900Z,10.23
2023-03-22T02:02:51.392Z,10.00
2023-03-22T02:05:55.631Z,10.00
2023-03-22T02:08:59.882Z,9.60
2023-03-22T02:12:14.283Z,9.80
2023-03-22T02:15:23.524Z,9.77
2023-03-22T02:18:40.104Z,10.20
2023-03-22T02:22:14.235Z,9.60
2023-03-22T02:25:42.619Z,10.23
2023-03-22T02:28:50.928Z,9.20
2023-03-22T02:32:33.878Z,9.77
2023-03-22T02:36:07.635Z,9.77
2023-03-22T02:39:32.397Z,9.77
2023-03-22T02:42:45.278Z,9.93
2023-03-22T02:45:54.854Z,8.67
2023-03-22T02:49:05.566Z,9.37
2023-03-22T02:52:17.343Z,9.57
2023-03-22T02:55:27.448Z,8.63
2023-03-22T02:58:34.863Z,9.23
2023-03-22T03:01:41.610Z,9.20
2023-03-22T03:04:47.395Z,8.93
2023-03-22T03:07:55.641Z,9.23
2023-03-22T03:10:59.686Z,8.37
2023-03-22T03:14:02.370Z,9.07
2023-03-22T03:17:18.747Z,8.93
2023-03-22T03:20:30.245Z,9.00
2023-03-22T03:23:46.613Z,8.93
2023-03-22T03:26:57.308Z,9.53
2023-03-22T03:30:03.422Z,9.10
2023-03-22T03:33:10.475Z,8.90
2023-03-22T03:36:17.885Z,8.97
2023-03-22T03:39:22.076Z,8.60
2023-03-22T03:42:29.394Z,8.83
2023-03-22T03:45:32.691Z,9.23
2023-03-22T03:48:38.038Z,8.90
2023-03-22T03:51:49.437Z,9.37
2023-03-22T03:54:52.180Z,9.80
2023-03-22T03:57:56.131Z,9.10
2023-03-22T04:00:58.768Z,9.40
2023-03-22T04:04:01.410Z,8.73
2023-03-22T04:07:06.531Z,9.53
2023-03-22T04:10:09.941Z,9.17
2023-03-22T04:13:13.849Z,9.20
2023-03-22T04:16:16.465Z,8.23
2023-03-22T04:19:19.735Z,8.03
2023-03-22T04:22:22.313Z,8.97
2023-03-22T04:25:29.845Z,9.20
2023-03-22T04:28:34.254Z,8.13
2023-03-22T04:31:37.558Z,8.03
2023-03-22T04:34:40.297Z,7.90
2023-03-22T04:37:43.749Z,7.80
2023-03-22T04:40:46.699Z,7.53
2023-03-22T04:43:50.966Z,7.83
2023-03-22T04:46:53.597Z,8.53
2023-03-22T04:49:56.306Z,8.67
2023-03-22T04:52:59.019Z,7.63
2023-03-22T04:56:02.672Z,7.50
2023-03-22T04:59:06.619Z,7.63
2023-03-22T05:02:09.196Z,7.07
2023-03-22T05:05:11.787Z,6.90
2023-03-22T05:08:14.353Z,6.73
2023-03-22T05:11:19.373Z,7.13
2023-03-22T05:14:23.417Z,6.57
2023-03-22T05:17:26.011Z,7.93
2023-03-22T05:20:28.579Z,6.83
2023-03-22T05:23:31.177Z,7.40
2023-03-22T05:26:33.853Z,10.43
2023-03-22T05:29:37.924Z,14.43
2023-03-22T05:32:43.772Z,7.30
2023-03-22T05:35:46.410Z,7.10
2023-03-22T05:38:49.730Z,6.53
2023-03-22T05:41:52.322Z,6.57
2023-03-22T05:44:56.272Z,6.83
2023-03-22T05:47:59.242Z,7.17
2023-03-22T05:51:03.318Z,6.83
2023-03-22T05:54:07.536Z,7.10
2023-03-22T05:57:10.317Z,6.57
2023-03-22T06:00:16.873Z,6.90
2023-03-22T06:03:19.507Z,6.73
2023-03-22T06:06:22.164Z,7.00
2023-03-22T06:09:24.758Z,6.70
2023-03-22T06:12:30.031Z,6.17
2023-03-22T06:15:34.173Z,6.13
2023-03-22T06:18:36.803Z,6.70
2023-03-22T06:21:39.389Z,6.10
2023-03-22T06:24:42.406Z,5.90
2023-03-22T06:27:44.985Z,6.23
2023-03-22T06:30:48.960Z,6.37
2023-03-22T06:33:52.613Z,6.20
2023-03-22T06:36:56.369Z,6.70
2023-03-22T06:39:58.977Z,6.80
2023-03-22T06:43:04.604Z,5.70
2023-03-22T06:46:10.396Z,6.37
2023-03-22T06:49:12.976Z,6.47
2023-03-22T06:52:15.610Z,6.53
2023-03-22T06:55:18.281Z,6.33
2023-03-22T06:58:20.911Z,6.97
2023-03-22T07:01:25.560Z,6.77
2023-03-22T07:04:29.125Z,6.77
2023-03-22T07:07:31.725Z,6.67
2023-03-22T07:10:34.396Z,7.07
2023-03-22T07:13:36.990Z,7.17
2023-03-22T07:16:40.944Z,6.83
2023-03-22T07:19:44.912Z,6.80
2023-03-22T07:22:47.510Z,7.23
2023-03-22T07:25:50.274Z,6.83
2023-03-22T07:28:53.053Z,7.03
2023-03-22T07:31:57.091Z,6.90
2023-03-22T07:34:59.698Z,7.53
2023-03-22T07:38:02.307Z,6.67
2023-03-22T07:41:05.910Z,7.53
2023-03-22T07:44:17.621Z,7.23
2023-03-22T07:47:37.762Z,7.60
2023-03-22T07:50:42.890Z,7.33
2023-03-22T07:53:45.610Z,7.20
2023-03-22T07:56:48.915Z,7.97
2023-03-22T07:59:51.533Z,8.13
2023-03-22T08:02:55.645Z,8.27
2023-03-22T08:06:03.734Z,7.77
2023-03-22T08:09:08.290Z,8.20
2023-03-22T08:12:10.994Z,7.93
2023-03-22T08:15:13.577Z,8.83
2023-03-22T08:18:17.498Z,7.93
2023-03-22T08:21:20.232Z,9.40
2023-03-22T08:24:22.832Z,8.53
2023-03-22T08:27:25.541Z,9.57
2023-03-22T08:30:28.120Z,9.00
2023-03-22T08:33:32.056Z,9.10
2023-03-22T08:36:34.796Z,8.73
2023-03-22T08:39:37.766Z,9.63
2023-03-22T08:42:40.327Z,9.33
2023-03-22T08:45:43.287Z,9.43
2023-03-22T08:48:50.603Z,8.87
2023-03-22T08:51:53.236Z,9.60
2023-03-22T08:54:56.244Z,9.60
2023-03-22T08:57:59.742Z,9.20
2023-03-22T09:01:02.424Z,8.83
2023-03-22T09:04:07.858Z,8.77
2023-03-22T09:07:11.788Z,9.00
2023-03-22T09:10:15.094Z,8.20
2023-03-22T09:13:17.786Z,8.30
2023-03-22T09:16:20.690Z,8.03
2023-03-22T09:19:24.726Z,7.73
2023-03-22T09:22:27.665Z,7.60
2023-03-22T09:25:30.665Z,6.80
2023-03-22T09:28:33.714Z,6.77
2023-03-22T09:31:36.313Z,7.03
2023-03-22T09:34:40.593Z,6.53
2023-03-22T09:37:45.560Z,6.20
2023-03-22T09:41:00.314Z,6.20
2023-03-22T09:44:06.445Z,5.73
2023-03-22T09:47:16.939Z,5.43
2023-03-22T09:50:23.800Z,5.20
2023-03-22T09:53:29.514Z,5.20
2023-03-22T09:56:33.112Z,4.00
2023-03-22T09:59:41.707Z,3.97
2023-03-22T10:02:58.886Z,3.50
2023-03-22T10:06:06.079Z,3.90
2023-03-22T10:09:15.495Z,4.03
2023-03-22T10:12:26.252Z,3.57
2023-03-22T10:15:33.198Z,3.20
2023-03-22T10:18:38.950Z,3.20
2023-03-22T10:21:43.083Z,3.53
2023-03-22T10:24:48.990Z,2.97
2023-03-22T10:27:52.867Z,2.90
2023-03-22T10:30:57.125Z,3.13
2023-03-22T10:34:03.528Z,3.40
2023-03-22T10:37:11.492Z,3.13
2023-03-22T10:40:19.424Z,3.10
2023-03-22T10:43:26.436Z,2.53
2023-03-22T10:46:35.784Z,2.90
2023-03-22T10:49:43.334Z,3.00
2023-03-22T10:52:52.516Z,2.93
2023-03-22T10:55:55.272Z,2.83
2023-03-22T10:58:58.034Z,2.87
2023-03-22T11:02:01.885Z,2.43
2023-03-22T11:05:07.062Z,2.67
2023-03-22T11:08:15.305Z,2.07
2023-03-22T11:11:23.216Z,2.20
2023-03-22T11:14:31.155Z,2.30
2023-03-22T11:17:35.962Z,2.20
2023-03-22T11:20:41.572Z,2.10
2023-03-22T11:23:53.924Z,2.03
2023-03-22T11:27:04.833Z,2.30
2023-03-22T11:30:20.991Z,2.30
2023-03-22T11:33:25.805Z,2.00
2023-03-22T11:36:30.015Z,2.23
2023-03-22T11:39:34.015Z,2.40
2023-03-22T11:42:36.895Z,2.50
2023-03-22T11:45:43.801Z,2.30
2023-03-22T11:48:48.263Z,2.40
2023-03-22T11:51:50.986Z,1.90
2023-03-22T11:54:56.829Z,2.10
2023-03-22T11:57:59.514Z,2.13
2023-03-22T12:01:04.262Z,2.90
2023-03-22T12:04:11.405Z,2.60
2023-03-22T12:07:17.247Z,2.60
2023-03-22T12:10:26.355Z,2.73
2023-03-22T12:13:33.998Z,2.50
2023-03-22T12:16:45.721Z,3.13
2023-03-22T12:19:58.929Z,2.70
2023-03-22T12:23:03.218Z,2.80
2023-03-22T12:26:13.479Z,3.00
2023-03-22T12:29:19.799Z,3.27
2023-03-22T12:32:27.893Z,2.77
2023-03-22T12:35:32.818Z,3.17
2023-03-22T12:38:42.160Z,3.17
2023-03-22T12:41:49.592Z,2.97
2023-03-22T12:45:05.030Z,3.10
2023-03-22T12:48:15.297Z,3.30
2023-03-22T12:51:18.039Z,3.30
2023-03-22T12:54:25.185Z,3.30
2023-03-22T12:57:29.417Z,4.27
2023-03-22T13:00:37.834Z,4.20
2023-03-22T13:03:46.789Z,4.20
2023-03-22T13:06:58.226Z,4.27
2023-03-22T13:10:02.437Z,4.60
2023-03-22T13:13:18.151Z,4.37
2023-03-22T13:16:24.585Z,4.50
2023-03-22T13:19:38.451Z,4.30
2023-03-22T13:23:05.564Z,4.27
2023-03-22T13:26:16.443Z,4.60
2023-03-22T13:29:24.280Z,4.20
2023-03-22T13:32:33.138Z,3.20
2023-03-22T13:35:44.426Z,3.90
2023-03-22T13:38:56.580Z,3.60
2023-03-22T13:42:06.830Z,3.10
2023-03-22T13:45:31.437Z,3.43
2023-03-22T13:48:43.840Z,3.27
2023-03-22T13:51:46.802Z,3.30
2023-03-22T13:54:52.337Z,2.80
2023-03-22T13:57:59.811Z,2.87
2023-03-22T14:01:06.009Z,3.23
2023-03-22T14:04:12.935Z,3.70
2023-03-22T14:07:24.051Z,3.90
2023-03-22T14:10:32.317Z,4.13
2023-03-22T14:13:40.564Z,4.33
2023-03-22T14:16:47.995Z,4.97
2023-03-22T14:19:51.047Z,4.93
